createdAt,value
2022-11-25T00:02:22.543Z,100984.06
2022-11-25T00:07:25.492Z,100981.34
2022-11-25T00:12:28.312Z,100980.13
2022-11-25T00:17:32.473Z,100988.56
2022-11-25T00:22:35.398Z,100984.78
2022-11-25T00:27:38.133Z,100970.03
2022-11-25T00:32:42.357Z,100968.38
2022-11-25T00:37:45.099Z,100970.34
2022-11-25T00:43:05.271Z,100971.69
2022-11-25T00:48:09.701Z,100965.81
2022-11-25T00:53:12.449Z,100984.13
2022-11-25T00:58:15.241Z,100981.28
2022-11-25T01:03:19.380Z,100975.38
2022-11-25T01:08:22.216Z,100965.03
2022-11-25T01:13:24.909Z,100964.88
2022-11-25T01:18:30.136Z,100962.94
2022-11-25T01:23:32.951Z,100961.59
2022-11-25T01:28:36.108Z,100956.59
2022-11-25T01:33:40.261Z,100963.66
2022-11-25T01:38:44.148Z,100953.47
2022-11-25T01:44:19.207Z,100954.34
2022-11-25T01:49:28.226Z,100954.34
2022-11-25T01:54:35.101Z,100949.38
2022-11-25T01:59:43.789Z,100955.09
2022-11-25T02:04:48.946Z,100959.91
2022-11-25T02:09:52.342Z,100953.13
2022-11-25T02:14:56.712Z,100955.53
2022-11-25T02:20:07.087Z,100953.72
2022-11-25T02:25:16.149Z,100958.72
2022-11-25T02:30:19.481Z,100953.13
2022-11-25T02:35:31.746Z,100953.28
2022-11-25T02:40:42.755Z,100953.22
2022-11-25T02:45:52.750Z,100956.16
2022-11-25T02:50:56.324Z,100956.91
2022-11-25T02:56:00.825Z,100959.47
2022-11-25T03:01:05.129Z,100962.47
2022-11-25T03:06:08.508Z,100954.91
2022-11-25T03:11:13.734Z,100956.22
2022-11-25T03:16:16.583Z,100953.56
2022-11-25T03:21:20.583Z,100949.66
2022-11-25T03:26:25.974Z,100946.50
2022-11-25T03:31:28.807Z,100947.06
2022-11-25T03:36:31.866Z,100955.59
2022-11-25T03:41:36.051Z,100959.84
2022-11-25T03:46:38.938Z,100955.34
2022-11-25T03:51:43.914Z,100953.41
2022-11-25T03:56:50.071Z,100962.47
2022-11-25T04:01:53.054Z,100961.53
2022-11-25T04:06:56.050Z,100962.16
2022-11-25T04:12:17.854Z,100965.59
2022-11-25T04:17:28.905Z,100955.34
2022-11-25T04:22:31.952Z,100946.94
2022-11-25T04:27:37.347Z,100947.19
2022-11-25T04:32:40.604Z,100945.31
2022-11-25T04:37:45.056Z,100947.13
2022-11-25T04:42:49.986Z,100945.63
2022-11-25T04:47:56.047Z,100953.41
2022-11-25T04:52:59.350Z,100948.75
2022-11-25T04:58:04.049Z,100942.88
2022-11-25T05:03:09.176Z,100951.47
2022-11-25T05:08:14.289Z,100944.81
2022-11-25T05:13:18.663Z,100940.94
2022-11-25T05:18:21.468Z,100945.00
2022-11-25T05:23:24.689Z,100946.94
2022-11-25T05:28:29.760Z,100941.69
2022-11-25T05:33:32.832Z,100951.16
2022-11-25T05:38:35.822Z,100954.03
2022-11-25T05:43:40.559Z,100958.13
2022-11-25T05:48:43.920Z,100944.47
2022-11-25T05:53:47.257Z,100948.25
2022-11-25T05:58:51.743Z,100941.16
2022-11-25T06:03:54.689Z,100949.44
2022-11-25T06:08:57.579Z,100944.44
2022-11-25T06:14:02.296Z,100935.88
2022-11-25T06:19:06.749Z,100933.16
2022-11-25T06:24:11.972Z,100942.19
2022-11-25T06:29:17.974Z,100941.44
2022-11-25T06:34:25.096Z,100944.31
2022-11-25T06:39:28.108Z,100945.69
2022-11-25T06:44:32.315Z,100944.16
2022-11-25T06:49:35.112Z,100949.28
2022-11-25T06:54:41.060Z,100955.78
2022-11-25T06:59:45.295Z,100954.88
2022-11-25T07:04:48.172Z,100950.34
2022-11-25T07:09:50.898Z,100953.66
2022-11-25T07:14:55.176Z,100974.00
2022-11-25T07:19:57.880Z,100968.13
2022-11-25T07:25:00.595Z,100972.94
2022-11-25T07:35:28.088Z,100990.41
2022-11-25T07:40:30.852Z,100990.09
2022-11-25T07:45:35.413Z,100977.88
2022-11-25T07:50:43.463Z,100981.66
2022-11-25T07:55:46.269Z,100985.09
2022-11-25T08:00:50.440Z,101004.84
2022-11-25T08:05:53.334Z,101009.03
2022-11-25T08:10:56.400Z,100998.03
2022-11-25T08:16:01.568Z,100994.22
2022-11-25T08:21:06.638Z,100998.13
2022-11-25T08:26:11.449Z,100996.63
2022-11-25T08:31:18.098Z,101000.53
2022-11-25T08:36:21.975Z,101004.44
2022-11-25T08:41:27.078Z,100999.19
2022-11-25T08:46:36.412Z,101006.97
2022-11-25T08:51:40.316Z,101011.19
2022-11-25T08:56:43.887Z,101007.56
2022-11-25T09:01:48.072Z,101012.34
2022-11-25T09:06:51.028Z,101016.94
2022-11-25T09:11:53.839Z,101025.19
2022-11-25T09:16:58.024Z,101025.81
2022-11-25T09:22:00.898Z,101046.72
2022-11-25T09:27:03.716Z,101054.06
2022-11-25T09:32:07.987Z,101057.81
2022-11-25T09:37:13.023Z,101050.28
2022-11-25T09:42:51.077Z,101048.31
2022-11-25T09:48:03.870Z,101061.31
2022-11-25T09:53:17.227Z,101053.44
2022-11-25T09:58:30.387Z,101051.63
2022-11-25T10:03:41.303Z,101049.03
2022-11-25T10:08:46.633Z,101056.88
2022-11-25T10:13:54.781Z,101060.88
2022-11-25T10:19:01.878Z,101055.81
2022-11-25T10:24:05.119Z,101063.09
2022-11-25T10:29:22.930Z,101062.41
2022-11-25T10:34:35.698Z,101063.19
2022-11-25T10:39:38.603Z,101063.69
2022-11-25T10:44:43.013Z,101063.38
2022-11-25T10:50:00.805Z,101067.75
2022-11-25T10:55:11.490Z,101066.72
2022-11-25T11:00:28.715Z,101075.19
2022-11-25T11:05:33.193Z,101075.47
2022-11-25T11:10:36.434Z,101077.56
2022-11-25T11:15:47.938Z,101070.13
2022-11-25T11:20:54.159Z,101074.91
2022-11-25T11:26:00.674Z,101075.69
2022-11-25T11:31:08.142Z,101075.19
2022-11-25T11:36:25.206Z,101077.72
2022-11-25T11:41:38.445Z,101081.06
2022-11-25T11:47:01.801Z,101083.22
2022-11-25T11:52:16.591Z,101086.19
2022-11-25T11:57:33.788Z,101097.13
2022-11-25T12:02:46.787Z,101104.09
2022-11-25T12:08:03.488Z,101110.28
2022-11-25T12:13:13.949Z,101113.41
2022-11-25T12:18:25.338Z,101109.94
2022-11-25T12:23:41.121Z,101096.31
2022-11-25T12:28:49.985Z,101096.22
2022-11-25T12:34:03.084Z,101106.94
2022-11-25T12:39:18.003Z,101112.41
2022-11-25T12:44:26.424Z,101108.22
2022-11-25T12:49:30.802Z,101111.34
2022-11-25T12:54:58.588Z,101112.25
2022-11-25T13:06:05.783Z,101123.97
2022-11-25T13:11:26.446Z,101129.06
2022-11-25T13:16:30.626Z,101128.69
2022-11-25T13:21:33.717Z,101140.41
2022-11-25T13:26:48.142Z,101149.19
2022-11-25T13:31:59.895Z,101141.63
2022-11-25T13:37:23.787Z,101144.34
2022-11-25T13:42:28.856Z,101141.41
2022-11-25T13:47:37.634Z,101149.25
2022-11-25T13:52:48.076Z,101148.91
2022-11-25T13:58:17.856Z,101154.84
2022-11-25T14:03:46.692Z,101164.56
2022-11-25T14:08:57.225Z,101172.81
2022-11-25T14:14:20.680Z,101170.31
2022-11-25T14:19:52.769Z,101175.00
2022-11-25T14:25:17.924Z,101177.66
2022-11-25T14:30:24.145Z,101185.91
2022-11-25T14:35:31.495Z,101199.19
2022-11-25T14:40:39.637Z,101205.69
2022-11-25T14:45:43.967Z,101199.31
2022-11-25T14:50:56.665Z,101218.00
2022-11-25T14:56:02.390Z,101225.75
2022-11-25T15:01:08.818Z,101235.69
2022-11-25T15:06:14.766Z,101234.03
2022-11-25T15:11:19.791Z,101242.03
2022-11-25T15:16:27.108Z,101243.69
2022-11-25T15:21:31.710Z,101244.50
2022-11-25T15:26:36.483Z,101252.09
2022-11-25T15:31:41.645Z,101256.75
2022-11-25T15:36:45.165Z,101258.81
2022-11-25T15:41:50.798Z,101271.66
2022-11-25T15:47:00.365Z,101267.94
2022-11-25T15:52:08.426Z,101277.56
2022-11-25T15:57:18.783Z,101282.63
2022-11-25T16:02:38.101Z,101284.09
2022-11-25T16:07:41.682Z,101289.09
2022-11-25T16:12:44.467Z,101305.22
2022-11-25T16:17:48.681Z,101317.97
2022-11-25T16:22:51.443Z,101326.47
2022-11-25T16:27:54.265Z,101316.06
2022-11-25T16:32:58.744Z,101326.00
2022-11-25T16:38:01.465Z,101343.13
2022-11-25T16:43:04.658Z,101345.00
2022-11-25T16:48:16.984Z,101346.13
2022-11-25T16:53:19.876Z,101351.56
2022-11-25T16:58:25.072Z,101356.72
2022-11-25T17:03:29.550Z,101360.59
2022-11-25T17:08:32.425Z,101359.69
2022-11-25T17:13:35.691Z,101370.25
2022-11-25T17:18:39.910Z,101373.84
2022-11-25T17:23:43.343Z,101370.16
2022-11-25T17:28:54.085Z,101379.03
2022-11-25T17:33:58.367Z,101391.06
2022-11-25T17:39:01.115Z,101393.72
2022-11-25T17:44:03.904Z,101403.69
2022-11-25T17:49:14.876Z,101405.22
2022-11-25T17:54:17.710Z,101413.31
2022-11-25T17:59:26.701Z,101421.59
2022-11-25T18:04:34.182Z,101429.06
2022-11-25T18:09:37.027Z,101436.16
2022-11-25T18:14:40.903Z,101433.84
2022-11-25T18:19:49.785Z,101444.72
2022-11-25T18:24:57.673Z,101446.31
2022-11-25T18:30:02.513Z,101457.84
2022-11-25T18:35:16.385Z,101460.47
2022-11-25T18:40:19.648Z,101476.16
2022-11-25T18:45:24.648Z,101479.63
2022-11-25T18:50:29.002Z,101483.75
2022-11-25T18:55:32.148Z,101484.66
2022-11-25T19:00:35.038Z,101496.63
2022-11-25T19:05:45.873Z,101507.84
2022-11-25T19:10:50.407Z,101517.81
2022-11-25T19:15:58.796Z,101526.19
2022-11-25T19:21:02.932Z,101533.63
2022-11-25T19:26:12.395Z,101539.19
2022-11-25T19:31:15.295Z,101549.19
2022-11-25T19:36:24.663Z,101550.53
2022-11-25T19:41:30.725Z,101556.72
2022-11-25T19:46:52.702Z,101568.56
2022-11-25T19:52:03.779Z,101575.44
2022-11-25T19:57:19.483Z,101576.31
2022-11-25T20:02:50.511Z,101589.75
2022-11-25T20:07:57.388Z,101601.22
2022-11-25T20:13:00.908Z,101603.78
2022-11-25T20:18:05.261Z,101622.66
2022-11-25T20:23:25.701Z,101626.81
2022-11-25T20:28:41.428Z,101624.31
2022-11-25T20:33:54.014Z,101634.69
2022-11-25T20:39:26.607Z,101643.88
2022-11-25T20:44:29.576Z,101651.63
2022-11-25T20:49:33.734Z,101652.06
2022-11-25T20:54:54.591Z,101656.88
2022-11-25T20:59:57.952Z,101665.53
2022-11-25T21:05:00.956Z,101669.06
2022-11-25T21:10:22.679Z,101679.97
2022-11-25T21:15:27.408Z,101686.84
2022-11-25T21:20:30.307Z,101695.88
2022-11-25T21:25:35.817Z,101706.00
2022-11-25T21:30:51.305Z,101712.16
2022-11-25T21:42:21.782Z,101739.28
2022-11-25T21:47:43.636Z,101743.69
2022-11-25T22:04:47.211Z,101766.44
2022-11-25T22:09:50.415Z,101777.81
2022-11-25T22:14:55.207Z,101786.13
2022-11-25T22:19:58.362Z,101790.19
2022-11-25T22:25:01.170Z,101786.56
2022-11-25T22:30:06.364Z,101791.69
2022-11-25T22:35:15.525Z,101795.75
2022-11-25T22:40:18.320Z,101801.16
2022-11-25T22:45:28.731Z,101808.88
2022-11-25T22:50:33.879Z,101812.81
2022-11-25T22:55:36.727Z,101818.78
2022-11-25T23:00:44.844Z,101823.78
2022-11-25T23:05:48.575Z,101835.69
2022-11-25T23:10:52.597Z,101849.50
2022-11-25T23:15:58.303Z,101849.72
2022-11-25T23:21:01.102Z,101865.13
2022-11-25T23:26:03.866Z,101857.28
2022-11-25T23:31:12.788Z,101881.94
2022-11-25T23:36:18.967Z,101879.81
2022-11-25T23:41:23.636Z,101879.22
2022-11-25T23:53:58.354Z,101897.03
2022-11-25T23:59:30.948Z,101905.34
